sensor_id;sensor_type;location;lat;lon;timestamp;pressure;altitude;pressure_sealevel;temperature;humidity
76660;BME280;65579;45.534;6.212;2023-04-03T00:00:07;98439.22;;;9.25;50.24
76660;BME280;65579;45.534;6.212;2023-04-03T00:02:31;98437.79;;;9.61;50.19
76660;BME280;65579;45.534;6.212;2023-04-03T00:04:56;98435.22;;;9.38;49.87
76660;BME280;65579;45.534;6.212;2023-04-03T00:07:22;98435.43;;;9.30;50.03
76660;BME280;65579;45.534;6.212;2023-04-03T00:09:47;98439.19;;;9.66;49.62
76660;BME280;65579;45.534;6.212;2023-04-03T00:12:13;98436.68;;;9.58;49.70
76660;BME280;65579;45.534;6.212;2023-04-03T00:14:38;98436.34;;;9.42;50.19
76660;BME280;65579;45.534;6.212;2023-04-03T00:17:03;98440.52;;;9.25;50.62
76660;BME280;65579;45.534;6.212;2023-04-03T00:19:28;98439.08;;;9.17;50.60
76660;BME280;65579;45.534;6.212;2023-04-03T00:21:53;98437.70;;;9.68;50.41
76660;BME280;65579;45.534;6.212;2023-04-03T00:24:19;98434.49;;;9.88;49.85
76660;BME280;65579;45.534;6.212;2023-04-03T00:26:44;98433.84;;;9.95;49.14
76660;BME280;65579;45.534;6.212;2023-04-03T00:29:09;98431.53;;;9.47;50.62
76660;BME280;65579;45.534;6.212;2023-04-03T00:31:35;98429.18;;;9.41;49.77
76660;BME280;65579;45.534;6.212;2023-04-03T00:34:00;98425.45;;;9.20;50.81
76660;BME280;65579;45.534;6.212;2023-04-03T00:36:25;98425.28;;;9.50;50.36
76660;BME280;65579;45.534;6.212;2023-04-03T00:38:51;98423.84;;;9.65;49.07
76660;BME280;65579;45.534;6.212;2023-04-03T00:41:16;98423.83;;;9.15;50.49
76660;BME280;65579;45.534;6.212;2023-04-03T00:43:41;98424.33;;;9.42;50.19
76660;BME280;65579;45.534;6.212;2023-04-03T00:46:07;98423.59;;;9.89;50.04
76660;BME280;65579;45.534;6.212;2023-04-03T00:48:35;98422.95;;;9.11;50.61
76660;BME280;65579;45.534;6.212;2023-04-03T00:50:58;98421.32;;;9.16;50.13
76660;BME280;65579;45.534;6.212;2023-04-03T00:53:25;98419.13;;;9.34;50.07
76660;BME280;65579;45.534;6.212;2023-04-03T00:55:48;98419.16;;;9.52;49.43
76660;BME280;65579;45.534;6.212;2023-04-03T00:58:15;98418.53;;;9.84;49.40
76660;BME280;65579;45.534;6.212;2023-04-03T01:00:41;98415.88;;;9.64;49.42
76660;BME280;65579;45.534;6.212;2023-04-03T01:03:04;98413.81;;;9.74;49.56
76660;BME280;65579;45.534;6.212;2023-04-03T01:05:29;98414.62;;;10.17;47.88
76660;BME280;65579;45.534;6.212;2023-04-03T01:07:54;98411.29;;;9.07;49.93
76660;BME280;65579;45.534;6.212;2023-04-03T01:10:20;98414.66;;;10.01;48.74
76660;BME280;65579;45.534;6.212;2023-04-03T01:12:46;98411.36;;;9.97;48.33
76660;BME280;65579;45.534;6.212;2023-04-03T01:15:14;98407.79;;;10.05;48.79
76660;BME280;65579;45.534;6.212;2023-04-03T01:17:37;98403.02;;;10.27;48.37
76660;BME280;65579;45.534;6.212;2023-04-03T01:20:21;98399.63;;;9.26;49.80
76660;BME280;65579;45.534;6.212;2023-04-03T01:22:28;98401.68;;;9.65;48.80
76660;BME280;65579;45.534;6.212;2023-04-03T01:24:51;98402.86;;;10.08;48.70
76660;BME280;65579;45.534;6.212;2023-04-03T01:27:17;98400.36;;;9.41;49.30
76660;BME280;65579;45.534;6.212;2023-04-03T01:29:42;98401.45;;;9.08;50.18
76660;BME280;65579;45.534;6.212;2023-04-03T01:32:07;98399.64;;;9.56;49.82
76660;BME280;65579;45.534;6.212;2023-04-03T01:34:33;98401.33;;;9.49;49.99
76660;BME280;65579;45.534;6.212;2023-04-03T01:36:58;98402.00;;;10.01;48.59
76660;BME280;65579;45.534;6.212;2023-04-03T01:39:23;98401.39;;;10.09;48.40
76660;BME280;65579;45.534;6.212;2023-04-03T01:41:49;98397.58;;;10.22;48.15
76660;BME280;65579;45.534;6.212;2023-04-03T01:44:14;98398.41;;;10.06;48.86
76660;BME280;65579;45.534;6.212;2023-04-03T01:46:40;98398.89;;;10.21;48.51
76660;BME280;65579;45.534;6.212;2023-04-03T01:49:05;98399.08;;;9.96;48.63
76660;BME280;65579;45.534;6.212;2023-04-03T01:51:30;98398.73;;;10.33;48.16
76660;BME280;65579;45.534;6.212;2023-04-03T01:53:56;98396.13;;;9.90;49.14
76660;BME280;65579;45.534;6.212;2023-04-03T01:56:22;98393.66;;;9.41;49.76
76660;BME280;65579;45.534;6.212;2023-04-03T01:58:47;98396.40;;;9.34;50.25
76660;BME280;65579;45.534;6.212;2023-04-03T02:01:12;98396.18;;;9.63;50.17
76660;BME280;65579;45.534;6.212;2023-04-03T02:03:38;98394.98;;;9.51;49.62
76660;BME280;65579;45.534;6.212;2023-04-03T02:06:03;98390.78;;;8.96;50.27
76660;BME280;65579;45.534;6.212;2023-04-03T02:08:28;98391.34;;;9.89;49.21
76660;BME280;65579;45.534;6.212;2023-04-03T02:10:53;98390.91;;;9.47;49.38
76660;BME280;65579;45.534;6.212;2023-04-03T02:13:19;98388.99;;;10.32;48.37
76660;BME280;65579;45.534;6.212;2023-04-03T02:15:44;98390.82;;;10.14;48.10
76660;BME280;65579;45.534;6.212;2023-04-03T02:18:10;98388.72;;;9.80;48.72
76660;BME280;65579;45.534;6.212;2023-04-03T02:20:35;98385.78;;;9.83;48.88
76660;BME280;65579;45.534;6.212;2023-04-03T02:23:00;98382.45;;;9.76;49.08
76660;BME280;65579;45.534;6.212;2023-04-03T02:25:26;98376.02;;;9.37;50.23
76660;BME280;65579;45.534;6.212;2023-04-03T02:27:51;98376.87;;;9.87;49.35
76660;BME280;65579;45.534;6.212;2023-04-03T02:30:17;98367.08;;;8.99;50.92
76660;BME280;65579;45.534;6.212;2023-04-03T02:32:42;98370.09;;;9.75;49.37
76660;BME280;65579;45.534;6.212;2023-04-03T02:35:08;98370.00;;;10.02;49.11
76660;BME280;65579;45.534;6.212;2023-04-03T02:37:33;98367.35;;;9.41;50.53
76660;BME280;65579;45.534;6.212;2023-04-03T02:39:58;98366.40;;;9.29;50.67
76660;BME280;65579;45.534;6.212;2023-04-03T02:42:24;98368.25;;;9.60;50.51
76660;BME280;65579;45.534;6.212;2023-04-03T02:44:49;98368.79;;;9.55;50.39
76660;BME280;65579;45.534;6.212;2023-04-03T02:47:15;98372.48;;;9.71;49.41
76660;BME280;65579;45.534;6.212;2023-04-03T02:49:41;98369.82;;;9.35;50.35
76660;BME280;65579;45.534;6.212;2023-04-03T02:52:05;98370.39;;;9.77;49.02
76660;BME280;65579;45.534;6.212;2023-04-03T02:54:31;98370.00;;;9.70;49.53
76660;BME280;65579;45.534;6.212;2023-04-03T02:56:57;98365.76;;;9.54;49.97
76660;BME280;65579;45.534;6.212;2023-04-03T02:59:22;98363.48;;;9.13;50.20
76660;BME280;65579;45.534;6.212;2023-04-03T03:01:47;98360.76;;;9.61;50.27
76660;BME280;65579;45.534;6.212;2023-04-03T03:04:13;98360.10;;;9.16;50.78
76660;BME280;65579;45.534;6.212;2023-04-03T03:06:38;98358.17;;;8.81;50.78
76660;BME280;65579;45.534;6.212;2023-04-03T03:09:04;98360.93;;;9.36;49.95
76660;BME280;65579;45.534;6.212;2023-04-03T03:11:29;98359.44;;;9.39;50.47
76660;BME280;65579;45.534;6.212;2023-04-03T03:13:54;98361.42;;;9.26;50.32
76660;BME280;65579;45.534;6.212;2023-04-03T03:16:19;98360.94;;;9.79;49.46
76660;BME280;65579;45.534;6.212;2023-04-03T03:18:45;98361.83;;;9.84;49.19
76660;BME280;65579;45.534;6.212;2023-04-03T03:21:11;98363.94;;;9.84;48.98
76660;BME280;65579;45.534;6.212;2023-04-03T03:23:37;98360.53;;;9.70;49.38
76660;BME280;65579;45.534;6.212;2023-04-03T03:26:04;98363.09;;;10.29;48.48
76660;BME280;65579;45.534;6.212;2023-04-03T03:28:27;98362.14;;;9.77;48.87
76660;BME280;65579;45.534;6.212;2023-04-03T03:30:53;98359.34;;;8.87;50.38
76660;BME280;65579;45.534;6.212;2023-04-03T03:33:18;98361.64;;;9.28;50.51
76660;BME280;65579;45.534;6.212;2023-04-03T03:35:44;98365.53;;;10.02;48.75
76660;BME280;65579;45.534;6.212;2023-04-03T03:38:09;98363.48;;;9.22;50.76
76660;BME280;65579;45.534;6.212;2023-04-03T03:40:36;98363.57;;;9.32;50.27
76660;BME280;65579;45.534;6.212;2023-04-03T03:43:01;98361.97;;;9.19;50.52
76660;BME280;65579;45.534;6.212;2023-04-03T03:45:26;98362.38;;;9.34;50.79
76660;BME280;65579;45.534;6.212;2023-04-03T03:47:51;98363.14;;;9.28;51.01
76660;BME280;65579;45.534;6.212;2023-04-03T03:50:17;98364.03;;;9.90;50.14
76660;BME280;65579;45.534;6.212;2023-04-03T03:52:42;98361.58;;;9.84;49.61
76660;BME280;65579;45.534;6.212;2023-04-03T03:55:08;98359.98;;;9.30;50.52
76660;BME280;65579;45.534;6.212;2023-04-03T03:57:34;98356.49;;;10.02;49.37
76660;BME280;65579;45.534;6.212;2023-04-03T04:00:00;98358.17;;;9.66;49.88
76660;BME280;65579;45.534;6.212;2023-04-03T04:02:25;98354.85;;;9.89;49.74
76660;BME280;65579;45.534;6.212;2023-04-03T04:04:51;98353.95;;;9.57;50.40
76660;BME280;65579;45.534;6.212;2023-04-03T04:07:16;98351.90;;;9.50;49.91
76660;BME280;65579;45.534;6.212;2023-04-03T04:09:41;98354.47;;;9.44;49.71
76660;BME280;65579;45.534;6.212;2023-04-03T04:12:07;98355.32;;;9.40;50.06
76660;BME280;65579;45.534;6.212;2023-04-03T04:14:32;98355.08;;;8.91;51.23
76660;BME280;65579;45.534;6.212;2023-04-03T04:16:57;98357.32;;;8.96;51.02
76660;BME280;65579;45.534;6.212;2023-04-03T04:19:23;98358.84;;;9.35;50.78
76660;BME280;65579;45.534;6.212;2023-04-03T04:21:48;98361.52;;;9.84;49.82
76660;BME280;65579;45.534;6.212;2023-04-03T04:24:14;98360.49;;;9.46;50.47
76660;BME280;65579;45.534;6.212;2023-04-03T04:26:39;98358.58;;;9.35;50.52
76660;BME280;65579;45.534;6.212;2023-04-03T04:29:04;98356.74;;;9.44;50.97
76660;BME280;65579;45.534;6.212;2023-04-03T04:31:29;98356.00;;;9.33;51.25
76660;BME280;65579;45.534;6.212;2023-04-03T04:33:55;98356.34;;;9.62;51.02
76660;BME280;65579;45.534;6.212;2023-04-03T04:36:21;98354.93;;;9.13;51.04
76660;BME280;65579;45.534;6.212;2023-04-03T04:38:46;98353.15;;;9.59;50.66
76660;BME280;65579;45.534;6.212;2023-04-03T04:41:11;98352.11;;;9.81;49.82
76660;BME280;65579;45.534;6.212;2023-04-03T04:43:37;98352.75;;;10.07;50.25
76660;BME280;65579;45.534;6.212;2023-04-03T04:46:03;98351.50;;;9.47;50.37
76660;BME280;65579;45.534;6.212;2023-04-03T04:48:27;98348.81;;;9.09;51.12
76660;BME280;65579;45.534;6.212;2023-04-03T04:50:52;98344.31;;;9.23;51.16
76660;BME280;65579;45.534;6.212;2023-04-03T04:53:18;98345.00;;;9.63;50.63
76660;BME280;65579;45.534;6.212;2023-04-03T04:55:43;98346.37;;;9.71;50.18
76660;BME280;65579;45.534;6.212;2023-04-03T04:58:09;98347.10;;;9.46;50.30
76660;BME280;65579;45.534;6.212;2023-04-03T05:00:34;98345.55;;;9.07;50.06
76660;BME280;65579;45.534;6.212;2023-04-03T05:03:00;98344.59;;;9.04;50.29
76660;BME280;65579;45.534;6.212;2023-04-03T05:05:24;98345.87;;;9.44;50.02
76660;BME280;65579;45.534;6.212;2023-04-03T05:07:50;98345.17;;;9.24;49.55
76660;BME280;65579;45.534;6.212;2023-04-03T05:10:16;98340.92;;;9.21;50.46
76660;BME280;65579;45.534;6.212;2023-04-03T05:12:41;98346.05;;;8.68;51.41
76660;BME280;65579;45.534;6.212;2023-04-03T05:15:07;98347.29;;;8.55;51.32
76660;BME280;65579;45.534;6.212;2023-04-03T05:17:31;98347.75;;;9.15;50.33
76660;BME280;65579;45.534;6.212;2023-04-03T05:19:57;98349.83;;;9.11;50.48
76660;BME280;65579;45.534;6.212;2023-04-03T05:22:22;98351.99;;;8.90;51.73
76660;BME280;65579;45.534;6.212;2023-04-03T05:24:47;98355.40;;;8.92;51.74
76660;BME280;65579;45.534;6.212;2023-04-03T05:27:12;98356.26;;;9.29;51.37
76660;BME280;65579;45.534;6.212;2023-04-03T05:29:38;98359.43;;;9.25;50.86
76660;BME280;65579;45.534;6.212;2023-04-03T05:32:04;98358.31;;;9.22;50.99
76660;BME280;65579;45.534;6.212;2023-04-03T05:34:28;98362.29;;;9.46;50.90
76660;BME280;65579;45.534;6.212;2023-04-03T05:36:54;98363.31;;;8.79;51.01
76660;BME280;65579;45.534;6.212;2023-04-03T05:39:19;98360.55;;;9.34;51.52
76660;BME280;65579;45.534;6.212;2023-04-03T05:41:44;98362.07;;;8.82;52.02
76660;BME280;65579;45.534;6.212;2023-04-03T05:44:10;98361.05;;;10.48;49.13
76660;BME280;65579;45.534;6.212;2023-04-03T05:46:36;98359.94;;;10.24;49.11
76660;BME280;65579;45.534;6.212;2023-04-03T05:49:02;98360.33;;;9.95;49.06
76660;BME280;65579;45.534;6.212;2023-04-03T05:51:31;98357.15;;;9.19;50.14
76660;BME280;65579;45.534;6.212;2023-04-03T05:53:56;98355.97;;;9.11;50.61
76660;BME280;65579;45.534;6.212;2023-04-03T05:56:18;98356.03;;;8.75;51.96
76660;BME280;65579;45.534;6.212;2023-04-03T05:58:43;98356.72;;;10.11;49.24
76660;BME280;65579;45.534;6.212;2023-04-03T06:01:09;98355.61;;;10.30;48.69
76660;BME280;65579;45.534;6.212;2023-04-03T06:03:34;98357.21;;;9.37;50.45
76660;BME280;65579;45.534;6.212;2023-04-03T06:06:03;98356.44;;;9.32;50.93
76660;BME280;65579;45.534;6.212;2023-04-03T06:08:25;98356.29;;;9.73;51.41
76660;BME280;65579;45.534;6.212;2023-04-03T06:10:50;98358.28;;;8.81;53.91
76660;BME280;65579;45.534;6.212;2023-04-03T06:13:15;98357.65;;;8.94;52.90
76660;BME280;65579;45.534;6.212;2023-04-03T06:15:41;98357.10;;;8.99;52.75
76660;BME280;65579;45.534;6.212;2023-04-03T06:18:06;98357.14;;;8.95;52.86
76660;BME280;65579;45.534;6.212;2023-04-03T06:20:31;98357.32;;;9.47;51.93
76660;BME280;65579;45.534;6.212;2023-04-03T06:22:56;98356.35;;;8.80;52.68
76660;BME280;65579;45.534;6.212;2023-04-03T06:25:22;98356.82;;;9.13;52.22
76660;BME280;65579;45.534;6.212;2023-04-03T06:27:47;98355.31;;;8.47;53.08
76660;BME280;65579;45.534;6.212;2023-04-03T06:30:13;98352.48;;;9.51;51.61
76660;BME280;65579;45.534;6.212;2023-04-03T06:32:38;98354.28;;;9.40;51.57
76660;BME280;65579;45.534;6.212;2023-04-03T06:35:05;98354.68;;;9.41;51.50
76660;BME280;65579;45.534;6.212;2023-04-03T06:37:30;98352.17;;;9.78;50.16
76660;BME280;65579;45.534;6.212;2023-04-03T06:39:55;98353.10;;;9.99;49.80
76660;BME280;65579;45.534;6.212;2023-04-03T06:42:20;98353.74;;;10.66;48.11
76660;BME280;65579;45.534;6.212;2023-04-03T06:44:46;98354.28;;;10.00;49.70
76660;BME280;65579;45.534;6.212;2023-04-03T06:47:12;98353.32;;;9.32;50.94
76660;BME280;65579;45.534;6.212;2023-04-03T06:49:36;98354.76;;;9.34;51.28
76660;BME280;65579;45.534;6.212;2023-04-03T06:52:02;98355.10;;;8.88;51.97
76660;BME280;65579;45.534;6.212;2023-04-03T06:54:27;98356.86;;;9.28;51.71
76660;BME280;65579;45.534;6.212;2023-04-03T06:56:52;98358.84;;;9.23;50.94
76660;BME280;65579;45.534;6.212;2023-04-03T06:59:18;98363.61;;;10.17;49.77
76660;BME280;65579;45.534;6.212;2023-04-03T07:01:43;98363.86;;;9.86;48.65
76660;BME280;65579;45.534;6.212;2023-04-03T07:04:08;98359.32;;;10.77;46.96
76660;BME280;65579;45.534;6.212;2023-04-03T07:06:34;98359.42;;;9.99;47.61
76660;BME280;65579;45.534;6.212;2023-04-03T07:09:00;98357.67;;;9.29;49.29
76660;BME280;65579;45.534;6.212;2023-04-03T07:11:25;98358.06;;;10.78;47.78
76660;BME280;65579;45.534;6.212;2023-04-03T07:13:50;98352.63;;;11.09;46.15
76660;BME280;65579;45.534;6.212;2023-04-03T07:16:15;98352.57;;;11.02;46.64
76660;BME280;65579;45.534;6.212;2023-04-03T07:18:41;98353.31;;;11.25;45.68
76660;BME280;65579;45.534;6.212;2023-04-03T07:21:06;98354.86;;;11.35;45.06
76660;BME280;65579;45.534;6.212;2023-04-03T07:23:32;98351.14;;;12.44;44.21
76660;BME280;65579;45.534;6.212;2023-04-03T07:25:57;98350.41;;;12.79;43.02
76660;BME280;65579;45.534;6.212;2023-04-03T07:28:23;98351.90;;;12.36;43.73
76660;BME280;65579;45.534;6.212;2023-04-03T07:30:50;98352.51;;;11.40;44.58
76660;BME280;65579;45.534;6.212;2023-04-03T07:33:15;98352.42;;;11.67;44.38
76660;BME280;65579;45.534;6.212;2023-04-03T07:35:41;98355.65;;;11.57;44.46
76660;BME280;65579;45.534;6.212;2023-04-03T07:38:04;98356.75;;;12.04;44.30
76660;BME280;65579;45.534;6.212;2023-04-03T07:40:30;98352.16;;;11.87;43.86
76660;BME280;65579;45.534;6.212;2023-04-03T07:42:56;98351.79;;;11.53;44.60
76660;BME280;65579;45.534;6.212;2023-04-03T07:45:21;98354.14;;;12.06;43.34
76660;BME280;65579;45.534;6.212;2023-04-03T07:47:47;98355.89;;;11.41;43.65
76660;BME280;65579;45.534;6.212;2023-04-03T07:50:12;98354.92;;;12.00;44.31
76660;BME280;65579;45.534;6.212;2023-04-03T07:52:42;98353.75;;;11.90;43.01
76660;BME280;65579;45.534;6.212;2023-04-03T07:55:04;98352.84;;;12.37;42.57
76660;BME280;65579;45.534;6.212;2023-04-03T07:57:29;98351.94;;;12.08;43.12
76660;BME280;65579;45.534;6.212;2023-04-03T07:59:54;98351.49;;;12.12;42.09
76660;BME280;65579;45.534;6.212;2023-04-03T08:02:19;98346.76;;;12.21;42.67
76660;BME280;65579;45.534;6.212;2023-04-03T08:04:44;98348.79;;;12.39;42.52
76660;BME280;65579;45.534;6.212;2023-04-03T08:07:09;98352.35;;;11.37;44.09
76660;BME280;65579;45.534;6.212;2023-04-03T08:09:35;98350.18;;;11.80;43.21
76660;BME280;65579;45.534;6.212;2023-04-03T08:12:00;98349.83;;;12.15;42.65
76660;BME280;65579;45.534;6.212;2023-04-03T08:14:25;98349.79;;;11.85;42.23
76660;BME280;65579;45.534;6.212;2023-04-03T08:16:50;98351.70;;;11.90;41.43
76660;BME280;65579;45.534;6.212;2023-04-03T08:19:17;98351.39;;;12.12;41.71
76660;BME280;65579;45.534;6.212;2023-04-03T08:21:42;98350.54;;;12.61;40.88
76660;BME280;65579;45.534;6.212;2023-04-03T08:24:08;98350.54;;;12.70;39.30
76660;BME280;65579;45.534;6.212;2023-04-03T08:26:33;98350.04;;;12.39;39.39
76660;BME280;65579;45.534;6.212;2023-04-03T08:28:58;98348.72;;;12.81;39.38
76660;BME280;65579;45.534;6.212;2023-04-03T08:31:23;98347.37;;;12.22;41.69
76660;BME280;65579;45.534;6.212;2023-04-03T08:33:48;98348.43;;;12.33;41.05
76660;BME280;65579;45.534;6.212;2023-04-03T08:36:19;98350.15;;;12.63;41.23
76660;BME280;65579;45.534;6.212;2023-04-03T08:38:39;98353.92;;;11.58;42.61
76660;BME280;65579;45.534;6.212;2023-04-03T08:41:10;98352.05;;;13.34;39.71
76660;BME280;65579;45.534;6.212;2023-04-03T08:43:36;98354.87;;;13.63;39.25
76660;BME280;65579;45.534;6.212;2023-04-03T08:45:56;98354.56;;;13.47;38.76
76660;BME280;65579;45.534;6.212;2023-04-03T08:48:23;98354.97;;;13.48;39.67
76660;BME280;65579;45.534;6.212;2023-04-03T08:50:48;98349.98;;;13.90;38.15
76660;BME280;65579;45.534;6.212;2023-04-03T08:53:14;98350.89;;;14.95;38.35
76660;BME280;65579;45.534;6.212;2023-04-03T08:55:42;98350.63;;;14.43;37.68
76660;BME280;65579;45.534;6.212;2023-04-03T08:58:04;98354.60;;;14.24;37.13
76660;BME280;65579;45.534;6.212;2023-04-03T09:00:28;98347.15;;;13.59;38.54
76660;BME280;65579;45.534;6.212;2023-04-03T09:02:53;98344.86;;;13.97;37.52
76660;BME280;65579;45.534;6.212;2023-04-03T09:05:19;98343.50;;;14.22;37.63
76660;BME280;65579;45.534;6.212;2023-04-03T09:07:44;98340.20;;;13.90;36.97
76660;BME280;65579;45.534;6.212;2023-04-03T09:10:12;98334.20;;;14.70;36.29
76660;BME280;65579;45.534;6.212;2023-04-03T09:12:37;98328.91;;;15.45;36.21
76660;BME280;65579;45.534;6.212;2023-04-03T09:15:01;98333.10;;;14.13;36.51
76660;BME280;65579;45.534;6.212;2023-04-03T09:17:33;98327.72;;;13.50;38.00
76660;BME280;65579;45.534;6.212;2023-04-03T09:19:54;98328.82;;;14.73;36.35
76660;BME280;65579;45.534;6.212;2023-04-03T09:22:17;98324.98;;;15.20;34.84
76660;BME280;65579;45.534;6.212;2023-04-03T09:24:40;98321.81;;;15.49;34.86
76660;BME280;65579;45.534;6.212;2023-04-03T09:27:06;98319.37;;;14.97;35.98
76660;BME280;65579;45.534;6.212;2023-04-03T09:29:30;98319.09;;;14.45;34.53
76660;BME280;65579;45.534;6.212;2023-04-03T09:31:57;98313.38;;;15.03;33.37
76660;BME280;65579;45.534;6.212;2023-04-03T09:34:23;98308.20;;;15.20;31.39
76660;BME280;65579;45.534;6.212;2023-04-03T09:36:47;98309.01;;;15.46;30.74
76660;BME280;65579;45.534;6.212;2023-04-03T09:39:13;98309.06;;;14.91;32.76
76660;BME280;65579;45.534;6.212;2023-04-03T09:41:35;98304.77;;;15.50;32.57
76660;BME280;65579;45.534;6.212;2023-04-03T09:44:00;98302.13;;;15.11;32.78
76660;BME280;65579;45.534;6.212;2023-04-03T09:46:29;98307.86;;;14.65;34.19
76660;BME280;65579;45.534;6.212;2023-04-03T09:48:52;98305.64;;;14.75;36.37
76660;BME280;65579;45.534;6.212;2023-04-03T09:51:16;98299.13;;;16.38;32.30
76660;BME280;65579;45.534;6.212;2023-04-03T09:53:42;98297.46;;;15.12;32.36
76660;BME280;65579;45.534;6.212;2023-04-03T09:56:20;98294.28;;;15.56;33.89
76660;BME280;65579;45.534;6.212;2023-04-03T09:58:33;98290.46;;;15.29;33.47
76660;BME280;65579;45.534;6.212;2023-04-03T10:00:59;98286.73;;;16.01;33.45
76660;BME280;65579;45.534;6.212;2023-04-03T10:03:25;98283.56;;;15.81;32.16
76660;BME280;65579;45.534;6.212;2023-04-03T10:05:47;98279.86;;;14.84;34.04
76660;BME280;65579;45.534;6.212;2023-04-03T10:08:20;98277.08;;;15.28;34.59
76660;BME280;65579;45.534;6.212;2023-04-03T10:10:38;98277.23;;;15.63;33.89
76660;BME280;65579;45.534;6.212;2023-04-03T10:13:05;98275.31;;;15.55;33.44
76660;BME280;65579;45.534;6.212;2023-04-03T10:15:28;98274.72;;;15.45;33.29
76660;BME280;65579;45.534;6.212;2023-04-03T10:17:57;98274.38;;;16.27;33.05
76660;BME280;65579;45.534;6.212;2023-04-03T10:20:27;98274.48;;;16.59;31.82
76660;BME280;65579;45.534;6.212;2023-04-03T10:22:49;98272.40;;;16.93;30.60
76660;BME280;65579;45.534;6.212;2023-04-03T10:25:14;98271.22;;;16.75;29.66
76660;BME280;65579;45.534;6.212;2023-04-03T10:27:42;98269.01;;;15.72;32.78
76660;BME280;65579;45.534;6.212;2023-04-03T10:30:04;98268.43;;;15.71;33.18
76660;BME280;65579;45.534;6.212;2023-04-03T10:32:38;98265.13;;;15.09;32.78
76660;BME280;65579;45.534;6.212;2023-04-03T10:34:53;98262.83;;;16.55;31.62
76660;BME280;65579;45.534;6.212;2023-04-03T10:37:20;98259.27;;;16.86;32.36
76660;BME280;65579;45.534;6.212;2023-04-03T10:39:45;98259.75;;;15.31;32.70
76660;BME280;65579;45.534;6.212;2023-04-03T10:42:11;98259.99;;;15.77;32.13
76660;BME280;65579;45.534;6.212;2023-04-03T10:44:37;98257.70;;;16.12;31.12
76660;BME280;65579;45.534;6.212;2023-04-03T10:47:02;98254.27;;;16.20;31.20
76660;BME280;65579;45.534;6.212;2023-04-03T10:49:29;98244.63;;;15.16;32.64
76660;BME280;65579;45.534;6.212;2023-04-03T10:51:47;98242.03;;;16.71;31.34
76660;BME280;65579;45.534;6.212;2023-04-03T10:54:12;98240.72;;;15.30;34.80
76660;BME280;65579;45.534;6.212;2023-04-03T10:56:39;98241.23;;;15.25;34.75
76660;BME280;65579;45.534;6.212;2023-04-03T10:59:11;98241.83;;;14.08;36.95
76660;BME280;65579;45.534;6.212;2023-04-03T11:01:31;98235.35;;;15.12;35.74
76660;BME280;65579;45.534;6.212;2023-04-03T11:03:53;98230.81;;;16.43;34.23
76660;BME280;65579;45.534;6.212;2023-04-03T11:06:18;98233.74;;;14.60;37.33
76660;BME280;65579;45.534;6.212;2023-04-03T11:08:45;98227.92;;;16.28;32.91
76660;BME280;65579;45.534;6.212;2023-04-03T11:11:09;98225.08;;;16.54;31.82
76660;BME280;65579;45.534;6.212;2023-04-03T11:13:34;98220.11;;;15.21;36.77
76660;BME280;65579;45.534;6.212;2023-04-03T11:15:58;98217.85;;;13.59;38.37
76660;BME280;65579;45.534;6.212;2023-04-03T11:18:24;98218.06;;;14.15;37.33
76660;BME280;65579;45.534;6.212;2023-04-03T11:20:53;98214.96;;;13.62;39.25
76660;BME280;65579;45.534;6.212;2023-04-03T11:23:19;98213.43;;;13.13;39.53
76660;BME280;65579;45.534;6.212;2023-04-03T11:25:38;98210.94;;;12.84;39.70
76660;BME280;65579;45.534;6.212;2023-04-03T11:28:03;98209.43;;;13.26;40.16
76660;BME280;65579;45.534;6.212;2023-04-03T11:30:31;98203.10;;;12.72;39.26
76660;BME280;65579;45.534;6.212;2023-04-03T11:33:11;98200.92;;;13.28;39.18
76660;BME280;65579;45.534;6.212;2023-04-03T11:35:18;98195.94;;;13.53;39.77
76660;BME280;65579;45.534;6.212;2023-04-03T11:37:46;98190.08;;;12.73;41.31
76660;BME280;65579;45.534;6.212;2023-04-03T11:42:36;98184.15;;;12.88;39.94
76660;BME280;65579;45.534;6.212;2023-04-03T11:49:58;98181.80;;;13.13;38.47
76660;BME280;65579;45.534;6.212;2023-04-03T11:52:13;98176.65;;;14.12;38.30
76660;BME280;65579;45.534;6.212;2023-04-03T11:54:47;98175.90;;;14.65;36.53
76660;BME280;65579;45.534;6.212;2023-04-03T11:59:36;98174.08;;;13.72;38.13
76660;BME280;65579;45.534;6.212;2023-04-03T12:01:55;98168.55;;;13.39;38.31
76660;BME280;65579;45.534;6.212;2023-04-03T12:04:21;98171.00;;;13.89;39.05
76660;BME280;65579;45.534;6.212;2023-04-03T12:06:50;98166.81;;;13.46;39.09
76660;BME280;65579;45.534;6.212;2023-04-03T12:11:36;98161.71;;;13.38;39.64
76660;BME280;65579;45.534;6.212;2023-04-03T12:14:04;98160.94;;;12.52;40.22
76660;BME280;65579;45.534;6.212;2023-04-03T12:16:26;98156.24;;;12.48;41.26
76660;BME280;65579;45.534;6.212;2023-04-03T12:18:57;98159.24;;;13.83;37.65
76660;BME280;65579;45.534;6.212;2023-04-03T12:21:15;98152.38;;;12.70;41.20
76660;BME280;65579;45.534;6.212;2023-04-03T12:26:20;98144.14;;;12.51;40.39
76660;BME280;65579;45.534;6.212;2023-04-03T12:28:36;98135.20;;;12.41;41.20
76660;BME280;65579;45.534;6.212;2023-04-03T12:30:55;98130.85;;;13.07;40.30
76660;BME280;65579;45.534;6.212;2023-04-03T12:33:27;98130.87;;;12.56;40.58
76660;BME280;65579;45.534;6.212;2023-04-03T12:35:56;98133.00;;;12.46;38.59
76660;BME280;65579;45.534;6.212;2023-04-03T12:38:30;98131.71;;;12.46;40.19
76660;BME280;65579;45.534;6.212;2023-04-03T12:40:41;98130.22;;;11.91;41.16
76660;BME280;65579;45.534;6.212;2023-04-03T12:43:18;98120.70;;;12.48;41.54
76660;BME280;65579;45.534;6.212;2023-04-03T12:45:26;98121.57;;;12.03;40.35
76660;BME280;65579;45.534;6.212;2023-04-03T12:47:53;98113.41;;;12.50;41.24
76660;BME280;65579;45.534;6.212;2023-04-03T12:50:21;98115.81;;;12.66;41.27
76660;BME280;65579;45.534;6.212;2023-04-03T12:52:46;98117.44;;;11.90;41.36
76660;BME280;65579;45.534;6.212;2023-04-03T12:57:32;98117.01;;;11.80;41.40
76660;BME280;65579;45.534;6.212;2023-04-03T12:59:57;98103.44;;;11.72;42.33
76660;BME280;65579;45.534;6.212;2023-04-03T13:02:24;98102.67;;;12.08;41.57
76660;BME280;65579;45.534;6.212;2023-04-03T13:04:47;98099.29;;;11.94;42.12
76660;BME280;65579;45.534;6.212;2023-04-03T13:07:21;98103.57;;;12.87;41.33
76660;BME280;65579;45.534;6.212;2023-04-03T13:09:37;98097.16;;;12.67;40.21